createdAt,value
2022-11-09T00:01:31.496Z,49.07
2022-11-09T00:06:35.370Z,70.33
2022-11-09T00:11:38.119Z,80.30
2022-11-09T00:16:40.536Z,63.17
2022-11-09T00:21:43.066Z,66.40
2022-11-09T00:26:45.522Z,71.53
2022-11-09T00:31:48.763Z,70.27
2022-11-09T00:36:51.162Z,69.57
2022-11-09T00:41:54.019Z,72.73
2022-11-09T00:46:56.979Z,68.33
2022-11-09T00:51:59.388Z,68.57
2022-11-09T00:57:01.966Z,54.37
2022-11-09T01:02:05.657Z,61.90
2022-11-09T01:07:10.241Z,67.47
2022-11-09T01:12:12.759Z,62.13
2022-11-09T01:17:15.401Z,59.33
2022-11-09T01:22:19.182Z,58.00
2022-11-09T01:27:23.369Z,57.73
2022-11-09T01:32:25.888Z,58.73
2022-11-09T01:37:28.313Z,62.43
2022-11-09T01:42:36.439Z,54.53
2022-11-09T01:47:38.873Z,51.20
2022-11-09T01:52:45.225Z,50.23
2022-11-09T01:58:00.618Z,53.77
2022-11-09T02:03:08.993Z,49.07
2022-11-09T02:08:15.574Z,49.87
2022-11-09T02:13:21.641Z,44.23
2022-11-09T02:18:24.638Z,48.20
2022-11-09T02:23:27.452Z,49.07
2022-11-09T02:28:32.259Z,45.97
2022-11-09T02:33:52.579Z,39.43
2022-11-09T02:38:57.305Z,41.87
2022-11-09T02:44:01.862Z,48.67
2022-11-09T02:49:05.060Z,45.47
2022-11-09T02:54:07.517Z,53.07
2022-11-09T02:59:10.133Z,49.40
2022-11-09T03:04:13.337Z,55.10
2022-11-09T03:09:16.856Z,54.60
2022-11-09T03:14:19.591Z,50.37
2022-11-09T03:19:26.185Z,53.37
2022-11-09T03:24:28.978Z,47.83
2022-11-09T03:29:34.061Z,50.60
2022-11-09T03:34:37.726Z,52.20
2022-11-09T03:39:40.549Z,46.67
2022-11-09T03:44:42.996Z,55.57
2022-11-09T03:49:45.304Z,60.90
2022-11-09T03:54:47.638Z,54.07
2022-11-09T03:59:50.035Z,48.47
2022-11-09T04:04:52.441Z,47.03
2022-11-09T04:09:54.779Z,47.70
2022-11-09T04:14:57.101Z,44.93
2022-11-09T04:19:59.586Z,57.43
2022-11-09T04:25:01.989Z,53.30
2022-11-09T04:30:04.665Z,46.40
2022-11-09T04:35:07.695Z,41.80
2022-11-09T04:40:10.861Z,43.60
2022-11-09T04:45:13.306Z,70.47
2022-11-09T04:50:15.899Z,83.83
2022-11-09T04:55:18.390Z,85.37
2022-11-09T05:00:20.874Z,63.43
2022-11-09T05:05:23.157Z,64.00
2022-11-09T05:10:25.583Z,50.53
2022-11-09T05:15:28.031Z,53.87
2022-11-09T05:20:30.903Z,50.37
2022-11-09T05:25:33.869Z,68.30
2022-11-09T05:30:36.375Z,71.97
2022-11-09T05:35:38.776Z,67.87
2022-11-09T05:40:41.160Z,82.33
2022-11-09T05:45:44.449Z,86.57
2022-11-09T05:50:47.620Z,78.13
2022-11-09T05:56:07.570Z,79.13
2022-11-09T06:01:15.824Z,151.47
2022-11-09T06:06:19.101Z,179.17
2022-11-09T06:11:23.903Z,116.27
2022-11-09T06:16:26.849Z,106.13
2022-11-09T06:21:29.243Z,105.43
2022-11-09T06:26:31.654Z,105.10
2022-11-09T06:31:34.026Z,86.73
2022-11-09T06:36:36.460Z,81.10
2022-11-09T06:41:41.185Z,100.43
2022-11-09T06:46:47.125Z,117.90
2022-11-09T06:51:49.688Z,112.70
2022-11-09T06:56:55.214Z,116.63
2022-11-09T07:02:01.412Z,109.47
2022-11-09T07:07:04.436Z,116.53
2022-11-09T07:12:06.863Z,94.20
2022-11-09T07:17:09.258Z,94.03
2022-11-09T07:22:11.714Z,87.07
2022-11-09T07:27:14.046Z,83.73
2022-11-09T07:32:17.828Z,92.70
2022-11-09T07:37:20.135Z,83.63
2022-11-09T07:42:22.563Z,87.27
2022-11-09T07:47:25.247Z,80.50
2022-11-09T07:52:27.671Z,77.93
2022-11-09T07:57:30.843Z,65.77
2022-11-09T08:02:33.353Z,63.07
2022-11-09T08:07:38.626Z,69.93
2022-11-09T08:12:41.099Z,68.50
2022-11-09T08:17:46.137Z,62.87
2022-11-09T08:22:48.582Z,74.60
2022-11-09T08:27:51.327Z,84.03
2022-11-09T08:32:53.886Z,61.77
2022-11-09T08:37:59.876Z,68.43
2022-11-09T08:43:08.231Z,67.40
2022-11-09T08:48:13.500Z,86.67
2022-11-09T08:53:15.790Z,99.20
2022-11-09T08:58:19.523Z,78.10
2022-11-09T09:03:22.087Z,103.50
2022-11-09T09:08:25.348Z,88.60
2022-11-09T09:13:27.738Z,88.03
2022-11-09T09:18:30.098Z,67.40
2022-11-09T09:23:32.407Z,57.47
2022-11-09T09:28:34.954Z,56.53
2022-11-09T09:33:37.603Z,58.00
2022-11-09T09:38:40.037Z,52.87
2022-11-09T09:43:45.934Z,62.10
2022-11-09T09:48:53.498Z,57.40
2022-11-09T09:54:03.774Z,60.23
2022-11-09T09:59:33.163Z,68.80
2022-11-09T10:04:40.365Z,64.77
2022-11-09T10:10:03.838Z,59.17
2022-11-09T10:15:14.993Z,60.60
2022-11-09T10:20:54.358Z,56.43
2022-11-09T10:26:24.122Z,51.87
2022-11-09T10:31:32.529Z,45.33
2022-11-09T10:36:47.860Z,42.60
2022-11-09T10:41:50.285Z,35.17
2022-11-09T10:47:14.352Z,34.03
2022-11-09T10:52:47.318Z,36.93
2022-11-09T10:58:21.564Z,40.90
2022-11-09T11:03:44.434Z,34.20
2022-11-09T11:09:05.449Z,62.07
2022-11-09T11:14:33.758Z,77.97
2022-11-09T11:19:54.960Z,48.53
2022-11-09T11:25:22.484Z,35.10
2022-11-09T11:30:43.143Z,31.57
2022-11-09T11:36:42.155Z,32.27
2022-11-09T11:42:14.226Z,32.77
2022-11-09T11:48:15.404Z,29.43
2022-11-09T11:54:13.671Z,28.97
2022-11-09T12:00:10.962Z,30.57
2022-11-09T12:05:56.441Z,29.43
2022-11-09T12:12:06.216Z,38.20
2022-11-09T12:17:39.963Z,28.67
2022-11-09T12:23:21.526Z,35.40
2022-11-09T12:29:20.037Z,49.03
2022-11-09T12:34:57.778Z,47.97
2022-11-09T12:40:25.012Z,40.30
2022-11-09T12:45:45.819Z,30.87
2022-11-09T12:51:08.455Z,34.37
2022-11-09T12:56:35.538Z,43.43
2022-11-09T13:01:58.563Z,40.23
2022-11-09T13:07:32.890Z,34.57
2022-11-09T13:13:22.743Z,39.90
2022-11-09T13:18:45.595Z,42.57
2022-11-09T13:24:34.348Z,58.00
2022-11-09T13:35:42.713Z,60.20
2022-11-09T13:41:24.961Z,62.10
2022-11-09T13:46:48.488Z,57.57
2022-11-09T13:52:43.861Z,92.40
2022-11-09T13:58:23.602Z,51.27
2022-11-09T14:03:51.886Z,47.13
2022-11-09T14:09:18.173Z,49.60
2022-11-09T14:14:57.674Z,78.70
2022-11-09T14:20:55.229Z,80.77
2022-11-09T14:26:23.691Z,92.93
2022-11-09T14:31:45.866Z,76.03
2022-11-09T14:37:07.075Z,81.17
2022-11-09T14:42:28.538Z,127.97
2022-11-09T14:47:53.242Z,91.83
2022-11-09T14:53:25.738Z,100.93
2022-11-09T14:58:47.694Z,105.50
2022-11-09T15:04:21.489Z,124.53
2022-11-09T15:09:45.858Z,145.07
2022-11-09T15:15:08.847Z,139.47
2022-11-09T15:20:33.613Z,198.03
2022-11-09T15:25:56.308Z,279.80
2022-11-09T15:31:19.388Z,259.67
2022-11-09T15:36:44.978Z,238.03
2022-11-09T15:42:11.862Z,242.87
2022-11-09T15:47:38.568Z,267.17
2022-11-09T15:52:59.398Z,186.30
2022-11-09T15:58:23.720Z,178.97
2022-11-09T16:03:44.855Z,164.53
2022-11-09T16:09:05.572Z,174.87
2022-11-09T16:14:26.725Z,201.17
2022-11-09T16:19:47.784Z,268.40
2022-11-09T16:25:09.409Z,265.90
2022-11-09T16:30:31.297Z,246.50
2022-11-09T16:35:53.822Z,219.60
2022-11-09T16:41:16.132Z,155.10
2022-11-09T16:46:37.057Z,190.43
2022-11-09T16:51:58.472Z,212.87
2022-11-09T16:57:19.719Z,256.83
2022-11-09T17:02:40.968Z,338.43
2022-11-09T17:08:02.084Z,202.50
2022-11-09T17:13:23.392Z,176.33
2022-11-09T17:18:44.430Z,215.53
2022-11-09T17:24:06.473Z,195.83
2022-11-09T17:29:27.835Z,190.97
2022-11-09T17:34:49.111Z,179.13
2022-11-09T17:40:10.672Z,210.07
2022-11-09T17:45:31.644Z,233.97
2022-11-09T17:50:52.425Z,236.37
2022-11-09T17:56:13.539Z,201.83
2022-11-09T18:01:41.224Z,208.77
2022-11-09T18:07:03.035Z,192.10
2022-11-09T18:12:24.097Z,166.87
2022-11-09T18:17:45.237Z,157.13
2022-11-09T18:23:06.337Z,173.70
2022-11-09T18:28:27.158Z,154.33
2022-11-09T18:33:49.382Z,179.90
2022-11-09T18:39:10.545Z,384.13
2022-11-09T18:44:31.648Z,270.67
2022-11-09T18:49:52.946Z,340.30
2022-11-09T18:55:13.983Z,364.93
2022-11-09T19:00:35.627Z,330.70
2022-11-09T19:05:56.550Z,215.90
2022-11-09T19:11:17.773Z,201.90
2022-11-09T19:16:38.886Z,151.87
2022-11-09T19:22:00.262Z,226.43
2022-11-09T19:27:22.475Z,162.47
2022-11-09T19:32:43.327Z,122.43
2022-11-09T19:38:06.469Z,126.97
2022-11-09T19:43:27.759Z,138.00
2022-11-09T19:48:48.836Z,139.50
2022-11-09T19:54:11.599Z,122.40
2022-11-09T19:59:33.240Z,117.50
2022-11-09T20:04:54.633Z,111.33
2022-11-09T20:10:16.357Z,111.57
2022-11-09T20:15:37.337Z,113.47
2022-11-09T20:20:58.127Z,120.50
2022-11-09T20:26:19.304Z,106.17
2022-11-09T20:31:40.170Z,100.97
2022-11-09T20:37:01.351Z,141.43
2022-11-09T20:42:22.463Z,138.70
2022-11-09T20:48:07.217Z,132.97
2022-11-09T20:53:24.408Z,150.37
2022-11-09T20:58:45.613Z,139.37
2022-11-09T21:04:06.591Z,139.27
2022-11-09T21:09:27.612Z,152.77
2022-11-09T21:14:48.698Z,186.43
2022-11-09T21:20:10.253Z,121.13
2022-11-09T21:25:49.589Z,152.07
2022-11-09T21:31:10.977Z,102.70
2022-11-09T21:36:31.912Z,91.40
2022-11-09T21:41:52.816Z,89.57
2022-11-09T21:47:14.417Z,91.77
2022-11-09T21:52:35.395Z,102.00
2022-11-09T21:57:56.372Z,90.10
2022-11-09T22:03:17.220Z,94.20
2022-11-09T22:08:38.553Z,108.40
2022-11-09T22:14:17.630Z,116.03
2022-11-09T22:19:58.044Z,119.93
2022-11-09T22:25:18.920Z,115.83
2022-11-09T22:30:39.900Z,107.83
2022-11-09T22:36:03.017Z,102.50
2022-11-09T22:41:24.703Z,98.90
2022-11-09T22:46:45.627Z,92.93
2022-11-09T22:52:06.510Z,94.60
2022-11-09T22:57:27.383Z,96.47
2022-11-09T23:02:48.364Z,99.23
2022-11-09T23:08:09.997Z,87.83
2022-11-09T23:13:33.945Z,85.13
2022-11-09T23:18:55.659Z,78.50
2022-11-09T23:24:35.190Z,87.33
2022-11-09T23:29:56.103Z,83.60
2022-11-09T23:35:17.769Z,71.53
2022-11-09T23:40:38.894Z,82.23
2022-11-09T23:46:04.666Z,79.67
2022-11-09T23:51:25.645Z,74.23
2022-11-09T23:56:46.447Z,74.57
